Time;durP1;ratioP1;P1;durP2;ratioP2;P2;SDS_P1;SDS_P2;PMS_P1;PMS_P2;Temp;Humidity;BMP_temperature;BMP_pressure;BME280_temperature;BME280_humidity;BME280_pressure;Samples;Min_cycle;Max_cycle;Signal;HPM_P1;HPM_P2
2021/11/03 00:01:37;;;;;;;10.77;5.97;;;;;;;7.65;75.27;100158.97;4994234;28;20049;-58
2021/11/03 00:04:03;;;;;;;11.90;6.88;;;;;;;7.63;75.66;100160.66;4990818;28;20672;-58
2021/11/03 00:06:29;;;;;;;10.30;6.25;;;;;;;7.61;75.30;100163.25;4995085;28;20302;-58
2021/11/03 00:08:57;;;;;;;12.82;6.78;;;;;;;7.57;75.96;100158.84;4997384;28;20709;-56
2021/11/03 00:11:23;;;;;;;8.98;5.95;;;;;;;7.60;75.64;100156.31;4997631;28;20140;-57
2021/11/03 00:13:48;;;;;;;11.02;6.15;;;;;;;7.58;75.42;100155.41;4983918;28;20150;-58
2021/11/03 00:16:14;;;;;;;11.98;6.30;;;;;;;7.62;75.49;100159.78;4989137;28;20045;-57
2021/11/03 00:18:39;;;;;;;10.98;6.65;;;;;;;7.64;75.50;100155.50;4992110;28;20073;-58
2021/11/03 00:21:06;;;;;;;10.70;5.75;;;;;;;7.60;75.32;100156.31;4997488;28;20044;-59
2021/11/03 00:23:31;;;;;;;9.48;6.35;;;;;;;7.58;75.52;100164.91;5002319;28;20520;-57
2021/11/03 00:25:57;;;;;;;11.63;6.72;;;;;;;7.56;75.82;100166.63;4988184;28;20053;-57
2021/11/03 00:28:23;;;;;;;10.15;6.55;;;;;;;7.61;75.54;100162.38;4991901;28;20113;-57
2021/11/03 00:30:50;;;;;;;11.13;6.72;;;;;;;7.60;75.76;100165.81;4992272;28;20072;-58
2021/11/03 00:33:16;;;;;;;11.10;6.10;;;;;;;7.60;75.70;100171.88;4990269;28;20473;-59
2021/11/03 00:35:53;;;;;;;9.38;6.50;;;;;;;7.59;75.58;100175.31;4992363;28;20476;-58
2021/11/03 00:38:20;;;;;;;13.10;7.43;;;;;;;7.60;76.05;100177.06;5013904;28;20033;-58
2021/11/03 00:40:46;;;;;;;13.93;8.45;;;;;;;7.69;77.20;100202.25;4994120;28;20368;-58
2021/11/03 00:43:11;;;;;;;17.10;9.40;;;;;;;7.31;76.94;100204.28;4995926;28;20033;-56
2021/11/03 00:45:36;;;;;;;19.73;11.73;;;;;;;7.16;76.85;100199.72;4991873;28;20033;-57
2021/11/03 00:48:02;;;;;;;20.33;12.10;;;;;;;7.42;76.83;100201.84;4993630;28;20037;-56
2021/11/03 00:50:28;;;;;;;21.30;12.55;;;;;;;7.52;76.35;100208.91;4991552;28;20054;-56
2021/11/03 00:52:54;;;;;;;19.48;12.13;;;;;;;7.61;76.23;100206.47;4992862;28;20041;-57
2021/11/03 00:55:19;;;;;;;25.67;11.93;;;;;;;7.66;76.17;100199.63;4993591;28;20807;-56
2021/11/03 00:57:45;;;;;;;22.63;12.90;;;;;;;7.69;76.34;100199.66;4985682;28;20153;-55
2021/11/03 01:00:12;;;;;;;24.23;13.95;;;;;;;7.75;76.48;100191.94;4994004;28;20050;-57
2021/11/03 01:02:37;;;;;;;23.27;14.05;;;;;;;7.84;76.71;100193.81;4993235;28;20048;-58
2021/11/03 01:05:04;;;;;;;21.33;13.52;;;;;;;7.91;76.92;100193.03;4998659;28;20313;-56
2021/11/03 01:07:29;;;;;;;23.30;14.32;;;;;;;7.98;76.60;100192.28;4993383;28;20417;-56
2021/11/03 01:09:55;;;;;;;24.38;14.23;;;;;;;8.03;76.77;100190.59;4989782;28;20037;-57
2021/11/03 01:12:20;;;;;;;27.15;14.27;;;;;;;8.06;76.64;100183.72;4992026;28;20951;-55
2021/11/03 01:14:46;;;;;;;21.58;13.77;;;;;;;8.12;76.92;100185.50;4993353;28;20214;-57
2021/11/03 01:17:11;;;;;;;23.23;14.20;;;;;;;8.13;76.62;100180.34;4991330;28;20555;-57
2021/11/03 01:19:37;;;;;;;24.40;14.55;;;;;;;8.17;76.53;100181.28;4992554;28;20377;-53
2021/11/03 01:22:03;;;;;;;24.02;14.13;;;;;;;8.24;76.56;100174.41;4986602;28;20069;-55
2021/11/03 01:24:28;;;;;;;24.25;14.27;;;;;;;8.26;76.60;100176.16;4997259;28;20037;-56
2021/11/03 01:26:53;;;;;;;24.85;14.00;;;;;;;8.28;76.98;100169.28;4998546;28;20049;-57
2021/11/03 01:29:19;;;;;;;21.75;14.23;;;;;;;8.32;76.41;100172.81;4994976;28;20041;-57
2021/11/03 01:31:44;;;;;;;23.77;14.23;;;;;;;8.31;76.22;100166.72;4995162;28;20049;-57
2021/11/03 01:34:09;;;;;;;23.80;13.88;;;;;;;8.31;76.40;100178.84;4990269;28;20462;-57
2021/11/03 01:36:35;;;;;;;26.75;14.00;;;;;;;8.23;76.62;100178.75;4999593;28;20069;-57
2021/11/03 01:39:03;;;;;;;20.70;13.05;;;;;;;8.26;76.46;100176.16;4998742;28;20076;-57
2021/11/03 01:41:28;;;;;;;22.23;13.48;;;;;;;8.24;76.15;100174.41;5000500;28;20091;-57
2021/11/03 01:44:04;;;;;;;22.15;13.73;;;;;;;8.22;76.51;100169.22;4992784;28;20148;-56
2021/11/03 01:46:41;;;;;;;26.67;13.93;;;;;;;8.27;76.46;100177.91;4995622;28;20766;-56
2021/11/03 01:49:14;;;;;;;23.10;14.40;;;;;;;8.31;76.62;100173.66;4994144;28;20520;-55
2021/11/03 01:52:02;;;;;;;27.33;14.97;;;;;;;8.32;76.67;100165.88;4989733;28;20038;-56
2021/11/03 01:54:40;;;;;;;23.17;13.98;;;;;;;8.41;76.63;100166.00;4996820;28;20085;-57
2021/11/03 01:57:08;;;;;;;27.15;15.20;;;;;;;8.42;76.84;100167.72;4996305;28;20607;-56
2021/11/03 01:59:38;;;;;;;26.80;15.13;;;;;;;8.48;76.48;100172.97;4999485;28;20045;-58
2021/11/03 02:02:04;;;;;;;25.25;14.95;;;;;;;8.51;76.50;100166.97;4988328;28;20432;-57
2021/11/03 02:04:30;;;;;;;25.92;14.85;;;;;;;8.57;76.68;100176.53;4999251;28;20044;-55
2021/11/03 02:06:57;;;;;;;29.67;16.17;;;;;;;8.61;76.58;100178.31;4995321;28;20053;-57
2021/11/03 02:09:22;;;;;;;28.73;15.77;;;;;;;8.67;76.72;100175.75;5012326;28;20046;-57
2021/11/03 02:11:47;;;;;;;27.00;15.45;;;;;;;8.70;77.05;100181.00;4990445;28;20057;-56
2021/11/03 02:14:13;;;;;;;29.90;15.98;;;;;;;8.72;76.86;100172.34;4991059;28;20616;-57
2021/11/03 02:16:43;;;;;;;29.17;16.52;;;;;;;8.74;76.84;100174.97;4997690;28;20092;-57
2021/11/03 02:19:19;;;;;;;27.95;15.30;;;;;;;8.75;76.52;100172.41;4990452;28;20049;-57
2021/11/03 02:22:04;;;;;;;32.00;16.75;;;;;;;8.78;76.90;100167.22;4996014;28;20052;-54
2021/11/03 02:24:40;;;;;;;26.83;15.45;;;;;;;8.85;76.67;100170.72;4995240;28;20132;-58
2021/11/03 02:27:05;;;;;;;28.90;16.25;;;;;;;8.85;77.08;100161.22;4991974;28;20457;-56
2021/11/03 02:29:31;;;;;;;33.08;16.83;;;;;;;8.88;77.18;100153.47;4990947;28;20068;-55
2021/11/03 02:32:14;;;;;;;27.95;14.75;;;;;;;8.93;77.02;100156.97;4984408;28;20132;-57
2021/11/03 02:34:40;;;;;;;25.33;14.40;;;;;;;8.93;77.01;100151.75;5000240;28;20041;-57
2021/11/03 02:37:27;;;;;;;25.50;13.60;;;;;;;8.95;77.08;100150.06;4991516;28;20088;-55
2021/11/03 02:40:12;;;;;;;24.20;12.98;;;;;;;8.96;76.91;100149.19;4987312;28;20135;-58
2021/11/03 02:42:42;;;;;;;23.20;12.48;;;;;;;8.99;76.64;100147.47;4987891;28;20042;-56
2021/11/03 02:45:23;;;;;;;30.58;13.10;;;;;;;8.95;76.99;100147.47;5023719;28;20535;-61
2021/11/03 02:47:48;;;;;;;22.42;12.20;;;;;;;8.96;76.79;100145.72;4992061;28;20037;-61
2021/11/03 02:50:14;;;;;;;23.27;12.77;;;;;;;8.95;77.09;100136.19;4996278;28;20042;-58
2021/11/03 02:52:40;;;;;;;21.25;12.63;;;;;;;8.95;76.79;100137.06;4991397;28;20399;-58
2021/11/03 02:55:08;;;;;;;22.23;12.60;;;;;;;8.95;76.61;100134.47;4994131;28;20138;-58
2021/11/03 02:57:34;;;;;;;20.05;12.30;;;;;;;8.91;76.85;100130.06;4991755;28;20038;-57
2021/11/03 03:00:00;;;;;;;21.95;13.45;;;;;;;8.92;76.74;100143.94;4985832;28;20354;-56
2021/11/03 03:02:25;;;;;;;18.25;10.77;;;;;;;8.90;76.62;100141.31;4996585;28;20099;-57
2021/11/03 03:04:53;;;;;;;20.92;12.70;;;;;;;8.84;76.36;100136.06;5002173;28;20404;-57
2021/11/03 03:07:20;;;;;;;22.20;12.85;;;;;;;8.77;76.31;100121.31;5000494;28;20137;-56
2021/11/03 03:09:46;;;;;;;18.70;11.65;;;;;;;8.67;76.27;100126.41;4989051;28;20049;-57
2021/11/03 03:12:18;;;;;;;23.67;12.57;;;;;;;8.56;76.26;100131.50;4998853;28;20048;-57
2021/11/03 03:14:44;;;;;;;21.35;11.88;;;;;;;8.46;76.03;100116.69;4996529;28;20098;-57
2021/11/03 03:17:12;;;;;;;17.55;11.25;;;;;;;8.32;76.08;100116.53;4995071;28;20044;-57
2021/11/03 03:19:38;;;;;;;18.15;10.63;;;;;;;8.24;75.98;100117.28;5001803;28;20492;-56
2021/11/03 03:22:04;;;;;;;17.17;10.48;;;;;;;8.14;75.82;100114.59;4988106;28;20603;-57
2021/11/03 03:24:30;;;;;;;17.05;10.60;;;;;;;8.04;75.75;100117.06;4999996;28;20036;-55
2021/11/03 03:26:56;;;;;;;23.00;13.55;;;;;;;7.92;76.27;100112.63;4994801;28;20045;-56
2021/11/03 03:29:21;;;;;;;15.23;10.05;;;;;;;7.89;75.54;100106.50;4994338;28;20417;-58
2021/11/03 03:31:48;;;;;;;17.27;10.73;;;;;;;7.79;75.72;100113.31;4991044;28;20057;-59
2021/11/03 03:34:17;;;;;;;18.67;10.10;;;;;;;7.69;75.94;100107.13;4993296;28;20037;-56
2021/11/03 03:36:44;;;;;;;14.20;8.93;;;;;;;7.61;75.77;100107.91;4992215;28;21270;-57
2021/11/03 03:39:11;;;;;;;14.23;8.57;;;;;;;7.54;75.65;100114.72;4999344;28;20042;-57
2021/11/03 03:41:37;;;;;;;18.25;10.90;;;;;;;7.44;76.17;100109.41;4994885;28;20527;-55
2021/11/03 03:44:03;;;;;;;18.70;10.73;;;;;;;7.39;75.88;100121.41;4980279;28;20282;-57
2021/11/03 03:46:29;;;;;;;17.58;10.35;;;;;;;7.31;75.90;100118.72;5008891;28;20053;-59
2021/11/03 03:48:54;;;;;;;18.48;10.18;;;;;;;7.25;75.87;100121.22;4993918;28;20603;-57
2021/11/03 03:51:21;;;;;;;16.85;10.02;;;;;;;7.17;76.20;100120.22;4994252;28;20069;-57
2021/11/03 03:53:47;;;;;;;17.17;10.48;;;;;;;7.15;76.03;100124.50;4987009;28;20465;-58
2021/11/03 03:56:13;;;;;;;20.25;11.18;;;;;;;7.05;76.46;100127.81;4990856;28;20045;-57
2021/11/03 03:58:39;;;;;;;17.98;10.55;;;;;;;7.00;76.14;100127.75;4996288;28;20044;-58
2021/11/03 04:01:05;;;;;;;14.45;9.02;;;;;;;6.98;75.91;100134.63;4994232;28;20088;-58
2021/11/03 04:03:30;;;;;;;13.85;8.70;;;;;;;6.98;75.99;100138.94;4993043;28;20045;-57
2021/11/03 04:05:56;;;;;;;14.38;8.98;;;;;;;6.95;76.22;100146.69;4988148;28;20079;-56
2021/11/03 04:08:24;;;;;;;15.18;9.25;;;;;;;6.92;75.92;100148.34;4994279;28;20053;-55
2021/11/03 04:10:49;;;;;;;13.98;8.68;;;;;;;6.89;76.00;100153.47;4992208;28;20156;-57
2021/11/03 04:13:15;;;;;;;15.75;9.40;;;;;;;6.86;76.34;100156.03;4990650;28;20068;-57
2021/11/03 04:15:40;;;;;;;19.15;10.93;;;;;;;6.81;76.84;100160.28;4988885;28;20049;-57
2021/11/03 04:18:05;;;;;;;14.82;9.48;;;;;;;6.81;76.22;100164.56;4988538;28;22189;-57
2021/11/03 04:20:31;;;;;;;18.50;9.40;;;;;;;6.79;76.36;100166.25;4997922;28;20038;-58
2021/11/03 04:22:57;;;;;;;16.85;9.45;;;;;;;6.77;76.27;100168.81;5011992;28;20043;-58
2021/11/03 04:25:22;;;;;;;13.20;8.10;;;;;;;6.78;76.19;100169.69;4989604;28;20076;-56
2021/11/03 04:27:48;;;;;;;14.82;9.02;;;;;;;6.79;76.00;100171.44;4985348;28;20049;-57
2021/11/03 04:30:16;;;;;;;17.40;9.73;;;;;;;6.80;76.35;100178.38;4993866;28;20152;-58
2021/11/03 04:32:42;;;;;;;17.52;10.25;;;;;;;6.77;76.91;100170.56;4998221;28;20060;-59
2021/11/03 04:35:08;;;;;;;13.30;8.48;;;;;;;6.79;76.49;100181.81;4999085;28;20541;-59
2021/11/03 04:37:34;;;;;;;15.23;9.85;;;;;;;6.76;76.63;100182.63;4992602;28;20060;-57
2021/11/03 04:39:59;;;;;;;15.88;9.40;;;;;;;6.73;76.45;100179.97;4987786;28;20377;-57
2021/11/03 04:42:25;;;;;;;15.63;9.65;;;;;;;6.70;76.52;100187.72;4992351;28;20133;-56
2021/11/03 04:44:50;;;;;;;22.23;12.02;;;;;;;6.66;76.72;100187.59;4990596;28;20489;-57
2021/11/03 04:47:15;;;;;;;17.30;10.50;;;;;;;6.69;76.86;100185.97;4991962;28;20038;-56
2021/11/03 04:49:41;;;;;;;19.23;10.60;;;;;;;6.72;76.65;100191.19;4998710;28;20080;-57
2021/11/03 04:52:07;;;;;;;29.73;14.35;;;;;;;6.69;76.90;100198.03;4988019;28;20041;-56
2021/11/03 04:54:32;;;;;;;41.88;19.00;;;;;;;6.71;77.73;100196.34;4993218;28;20103;-57
2021/11/03 04:56:58;;;;;;;39.70;18.80;;;;;;;6.84;77.88;100204.34;4994812;28;20052;-56
2021/11/03 04:59:23;;;;;;;32.72;15.85;;;;;;;6.91;77.47;100194.97;4997398;28;20064;-56
2021/11/03 05:01:49;;;;;;;29.40;14.73;;;;;;;6.91;77.09;100205.34;4984356;28;20049;-59
2021/11/03 05:04:14;;;;;;;26.98;13.50;;;;;;;6.86;76.92;100202.66;4998888;28;20053;-58
2021/11/03 05:06:41;;;;;;;20.83;11.23;;;;;;;6.83;76.59;100206.94;5000645;28;20068;-57
2021/11/03 05:09:09;;;;;;;21.55;12.25;;;;;;;6.75;76.44;100206.78;5025450;28;20053;-61
2021/11/03 05:11:35;;;;;;;20.88;11.50;;;;;;;6.70;76.40;100205.84;5002831;28;20394;-56
2021/11/03 05:14:01;;;;;;;19.95;10.88;;;;;;;6.63;76.56;100201.38;4990795;28;20046;-58
2021/11/03 05:16:27;;;;;;;18.95;10.65;;;;;;;6.61;75.82;100199.59;4998170;28;20065;-56
2021/11/03 05:18:53;;;;;;;16.35;9.90;;;;;;;6.58;76.03;100204.75;4993868;28;20427;-56
2021/11/03 05:21:19;;;;;;;16.52;10.20;;;;;;;6.53;76.16;100210.69;4996948;28;20524;-58
2021/11/03 05:23:45;;;;;;;20.35;10.35;;;;;;;6.51;76.04;100208.94;4988158;28;20050;-55
2021/11/03 05:26:23;;;;;;;17.77;10.57;;;;;;;6.55;75.78;100205.53;4994104;28;20037;-56
2021/11/03 05:28:50;;;;;;;16.55;10.05;;;;;;;6.53;76.02;100213.28;4994997;28;20041;-57
2021/11/03 05:31:16;;;;;;;27.67;13.55;;;;;;;6.51;76.04;100214.09;4995896;28;20053;-56
2021/11/03 05:33:42;;;;;;;20.92;10.82;;;;;;;6.51;76.05;100214.97;4991161;28;20069;-58
2021/11/03 05:36:07;;;;;;;25.52;13.13;;;;;;;6.53;76.08;100215.88;4989748;28;20050;-58
2021/11/03 05:38:33;;;;;;;23.75;14.02;;;;;;;6.55;76.00;100215.91;4996610;28;20151;-57
2021/11/03 05:40:58;;;;;;;24.42;13.85;;;;;;;6.63;76.08;100208.28;4992629;28;20054;-58
2021/11/03 05:43:23;;;;;;;22.65;13.23;;;;;;;6.60;76.07;100209.09;4995640;28;20541;-58
2021/11/03 05:45:49;;;;;;;22.40;12.43;;;;;;;6.56;75.84;100212.47;4992678;28;20548;-57
2021/11/03 05:48:15;;;;;;;23.48;12.80;;;;;;;6.51;75.74;100207.22;4995102;28;20608;-57
2021/11/03 05:50:40;;;;;;;25.58;12.70;;;;;;;6.51;76.03;100214.09;4993220;28;20041;-57
2021/11/03 05:53:06;;;;;;;22.70;12.60;;;;;;;6.47;76.11;100212.28;4992538;28;20034;-57
2021/11/03 05:55:32;;;;;;;27.70;14.30;;;;;;;6.41;76.22;100214.75;4995806;28;20675;-57
2021/11/03 05:57:57;;;;;;;20.73;12.38;;;;;;;6.36;76.06;100212.09;4989333;28;20513;-57
2021/11/03 06:00:34;;;;;;;19.73;10.95;;;;;;;6.35;76.04;100217.22;4994307;28;20048;-57
2021/11/03 06:03:01;;;;;;;16.70;10.15;;;;;;;6.34;75.66;100216.34;4993025;28;20056;-57
2021/11/03 06:05:27;;;;;;;19.85;10.80;;;;;;;6.32;75.77;100209.41;4992768;28;20103;-57
2021/11/03 06:07:56;;;;;;;17.30;9.98;;;;;;;6.29;75.92;100214.50;4995301;28;20072;-57
2021/11/03 06:10:28;;;;;;;19.00;10.93;;;;;;;6.29;75.73;100210.22;4987348;28;20050;-56
2021/11/03 06:12:53;;;;;;;20.48;11.35;;;;;;;6.31;75.99;100208.53;4993372;28;20050;-56
2021/11/03 06:15:19;;;;;;;19.77;11.73;;;;;;;6.32;75.75;100212.88;4991115;28;20033;-56
2021/11/03 06:17:46;;;;;;;20.25;11.90;;;;;;;6.33;76.28;100211.16;4994611;28;20572;-57
2021/11/03 06:20:11;;;;;;;23.95;12.43;;;;;;;6.33;75.93;100217.22;4996451;28;20073;-57
2021/11/03 06:22:37;;;;;;;24.02;12.32;;;;;;;6.31;76.20;100218.03;4995923;28;20061;-58
2021/11/03 06:25:04;;;;;;;24.23;12.70;;;;;;;6.27;75.98;100217.09;4989405;28;20034;-57
2021/11/03 06:27:29;;;;;;;22.38;12.38;;;;;;;6.25;75.90;100215.31;4991277;28;20490;-59
2021/11/03 06:29:55;;;;;;;24.02;12.68;;;;;;;6.20;76.18;100216.94;4986298;28;20038;-55
2021/11/03 06:32:20;;;;;;;19.65;10.85;;;;;;;6.18;75.68;100219.47;4998298;28;20131;-57
2021/11/03 06:34:46;;;;;;;31.63;16.55;;;;;;;6.14;76.74;100221.97;4997649;28;20448;-57
2021/11/03 06:37:11;;;;;;;35.67;17.55;;;;;;;6.19;76.65;100220.34;4999590;28;20103;-57
2021/11/03 06:39:37;;;;;;;36.35;16.55;;;;;;;6.24;76.56;100219.59;4998673;28;20508;-58
2021/11/03 06:42:02;;;;;;;38.40;17.92;;;;;;;6.19;76.42;100216.06;4982680;28;20048;-56
2021/11/03 06:44:28;;;;;;;22.55;13.15;;;;;;;6.18;76.27;100214.31;4993904;28;20052;-58
2021/11/03 06:46:53;;;;;;;26.17;14.65;;;;;;;6.14;76.20;100209.91;4999374;28;20045;-56
2021/11/03 06:49:19;;;;;;;22.02;12.70;;;;;;;6.13;76.03;100207.28;4993536;28;20068;-57
2021/11/03 06:51:44;;;;;;;28.13;15.18;;;;;;;6.07;76.69;100211.50;4995161;28;20090;-58
2021/11/03 06:54:10;;;;;;;28.02;14.45;;;;;;;6.05;76.50;100208.00;4992051;28;20426;-56
2021/11/03 06:56:37;;;;;;;24.95;13.55;;;;;;;6.12;76.25;100209.00;5003340;28;20127;-57
2021/11/03 06:59:02;;;;;;;34.08;17.58;;;;;;;6.16;76.26;100218.56;5024564;28;21929;-57
2021/11/03 07:01:28;;;;;;;39.70;18.30;;;;;;;6.19;76.74;100217.78;4991420;28;20050;-57
2021/11/03 07:03:54;;;;;;;34.17;17.58;;;;;;;6.26;77.00;100217.94;4991621;28;20119;-56
2021/11/03 07:06:19;;;;;;;30.20;16.50;;;;;;;6.25;76.45;100210.13;4993292;28;20057;-58
2021/11/03 07:08:47;;;;;;;32.60;16.95;;;;;;;6.17;76.42;100209.97;4984315;28;20048;-55
2021/11/03 07:11:12;;;;;;;29.77;15.80;;;;;;;6.14;76.54;100204.75;4994262;28;20443;-56
2021/11/03 07:13:41;;;;;;;33.53;17.17;;;;;;;6.10;76.61;100202.91;4994928;28;20128;-58
2021/11/03 07:16:06;;;;;;;31.83;16.52;;;;;;;6.09;76.89;100212.41;4989983;28;20045;-57
2021/11/03 07:18:32;;;;;;;36.67;18.75;;;;;;;6.10;76.82;100206.38;4994079;28;20156;-57
2021/11/03 07:20:57;;;;;;;29.73;16.27;;;;;;;6.16;76.69;100212.56;4995769;28;20576;-58
2021/11/03 07:23:23;;;;;;;26.70;15.35;;;;;;;6.14;76.32;100212.50;4992377;28;20155;-58
2021/11/03 07:25:49;;;;;;;31.63;17.42;;;;;;;6.15;76.54;100213.38;4992298;28;20045;-58
2021/11/03 07:28:15;;;;;;;31.63;18.05;;;;;;;6.23;76.55;100223.03;4974984;28;20164;-56
2021/11/03 07:30:41;;;;;;;31.80;16.95;;;;;;;6.24;76.36;100224.78;4987568;28;20250;-58
2021/11/03 07:33:09;;;;;;;38.75;19.45;;;;;;;6.19;76.68;100229.00;4993610;28;20468;-57
2021/11/03 07:35:35;;;;;;;35.17;17.75;;;;;;;6.23;76.54;100230.78;4990716;28;20046;-58
2021/11/03 07:38:02;;;;;;;59.88;20.88;;;;;;;6.25;77.04;100229.13;4986144;28;20136;-55
2021/11/03 07:40:32;;;;;;;72.15;16.23;;;;;;;6.24;77.34;100227.38;4992460;28;20502;-57
2021/11/03 07:42:59;;;;;;;46.08;14.07;;;;;;;6.30;76.87;100236.97;4989300;28;20050;-56
2021/11/03 07:45:26;;;;;;;70.03;14.63;;;;;;;6.27;77.02;100227.44;4989891;28;20045;-57
2021/11/03 07:47:51;;;;;;;26.58;14.43;;;;;;;6.28;77.28;100234.34;5001419;28;20064;-57
2021/11/03 07:50:21;;;;;;;22.77;13.43;;;;;;;6.34;76.92;100231.88;4991219;28;20049;-57
2021/11/03 07:52:46;;;;;;;32.55;14.38;;;;;;;6.41;77.13;100240.66;4987533;28;20464;-57
2021/11/03 07:55:12;;;;;;;29.38;14.27;;;;;;;6.44;76.90;100241.59;4989450;28;20042;-58
2021/11/03 07:57:37;;;;;;;25.48;14.25;;;;;;;6.50;77.38;100236.53;4988772;28;20416;-57
2021/11/03 08:00:07;;;;;;;23.27;14.25;;;;;;;6.57;77.17;100249.59;4982020;28;20305;-57
2021/11/03 08:02:32;;;;;;;22.55;13.27;;;;;;;6.68;77.07;100246.38;4985521;28;20056;-57
2021/11/03 08:04:58;;;;;;;19.83;12.65;;;;;;;6.83;76.96;100238.88;4994212;28;20445;-59
2021/11/03 08:07:23;;;;;;;19.50;12.40;;;;;;;6.88;76.88;100242.44;4993757;28;20341;-60
2021/11/03 08:09:49;;;;;;;29.45;15.43;;;;;;;6.90;76.95;100245.91;4990771;28;20594;-56
2021/11/03 08:12:16;;;;;;;30.40;15.77;;;;;;;6.93;77.09;100245.09;4982348;28;20309;-57
2021/11/03 08:14:42;;;;;;;31.65;16.13;;;;;;;7.05;77.16;100254.81;4987228;28;20180;-57
2021/11/03 08:17:21;;;;;;;32.15;18.02;;;;;;;7.10;76.90;100258.34;4984267;28;20054;-58
2021/11/03 08:19:52;;;;;;;30.83;16.10;;;;;;;7.18;77.08;100259.38;4993508;28;20362;-58
2021/11/03 08:22:20;;;;;;;28.73;16.13;;;;;;;7.20;76.92;100258.53;4992886;28;20049;-56
2021/11/03 08:24:48;;;;;;;36.78;19.23;;;;;;;7.24;77.04;100254.28;4983478;28;20370;-57
2021/11/03 08:27:13;;;;;;;35.35;17.58;;;;;;;7.27;76.94;100260.38;4982083;28;20430;-56
2021/11/03 08:29:39;;;;;;;26.98;15.05;;;;;;;7.32;76.91;100263.91;4994283;28;20298;-57
2021/11/03 08:32:06;;;;;;;35.58;19.08;;;;;;;7.30;76.90;100268.22;4988705;28;20044;-59
2021/11/03 08:34:32;;;;;;;34.47;17.35;;;;;;;7.36;76.93;100276.94;4985561;28;20046;-56
2021/11/03 08:37:04;;;;;;;39.50;19.30;;;;;;;7.41;76.89;100277.91;4993580;28;20065;-57
2021/11/03 08:39:30;;;;;;;41.85;21.90;;;;;;;7.46;76.79;100279.72;5018979;28;20041;-58
2021/11/03 08:42:01;;;;;;;48.10;23.88;;;;;;;7.53;76.80;100272.91;4992004;28;20065;-56
2021/11/03 08:44:27;;;;;;;47.60;23.05;;;;;;;7.60;76.88;100278.22;4988593;28;20181;-57
2021/11/03 08:46:53;;;;;;;50.45;25.02;;;;;;;7.66;77.06;100275.72;4990139;28;20441;-57
2021/11/03 08:49:19;;;;;;;53.05;26.08;;;;;;;7.75;76.75;100275.84;4986005;28;20060;-57
2021/11/03 08:51:44;;;;;;;52.47;26.75;;;;;;;7.89;76.89;100273.47;4989626;28;20144;-56
2021/11/03 08:54:10;;;;;;;59.75;27.85;;;;;;;8.01;77.06;100270.16;4991920;28;20064;-58
2021/11/03 08:56:39;;;;;;;60.15;29.88;;;;;;;8.14;76.90;100274.69;5006139;28;20120;-57
2021/11/03 08:59:08;;;;;;;59.63;29.08;;;;;;;8.27;77.17;100273.13;4992269;28;20053;-57
2021/11/03 09:01:35;;;;;;;57.30;29.40;;;;;;;8.41;77.19;100277.69;4991828;28;20512;-56
2021/11/03 09:04:00;;;;;;;52.03;28.83;;;;;;;8.54;76.83;100276.09;4992760;28;20781;-56
2021/11/03 09:06:26;;;;;;;51.35;27.52;;;;;;;8.70;76.90;100282.34;4995041;28;20346;-57
2021/11/03 09:08:51;;;;;;;46.67;27.13;;;;;;;8.70;76.72;100279.75;4990155;28;20117;-56
2021/11/03 09:11:22;;;;;;;45.13;26.98;;;;;;;8.68;76.73;100290.13;4986116;28;20073;-57
2021/11/03 09:13:51;;;;;;;49.97;28.42;;;;;;;8.79;76.43;100291.09;4986472;28;20045;-55
2021/11/03 09:16:17;;;;;;;51.65;29.55;;;;;;;8.94;76.30;100287.81;4990351;28;20419;-56
2021/11/03 09:18:42;;;;;;;54.65;30.48;;;;;;;9.07;76.14;100286.22;4992518;28;20068;-56
2021/11/03 09:21:09;;;;;;;50.25;29.15;;;;;;;9.16;76.28;100284.56;4978843;28;20079;-58
2021/11/03 09:23:35;;;;;;;49.63;29.02;;;;;;;9.23;76.28;100285.50;4994164;28;20464;-56
2021/11/03 09:26:01;;;;;;;48.08;28.23;;;;;;;9.30;76.10;100295.09;4990394;28;20215;-59
2021/11/03 09:28:29;;;;;;;46.17;27.35;;;;;;;9.26;75.74;100290.75;4990738;28;20053;-57
2021/11/03 09:30:56;;;;;;;49.47;27.98;;;;;;;9.27;75.82;100290.72;4981528;28;20046;-56
2021/11/03 09:33:22;;;;;;;48.88;28.27;;;;;;;9.27;76.16;100288.13;4982757;28;20111;-57
2021/11/03 09:35:50;;;;;;;46.58;26.85;;;;;;;9.26;75.59;100289.00;4992138;28;20053;-56
2021/11/03 09:38:19;;;;;;;59.92;27.85;;;;;;;9.29;75.64;100289.03;4993637;28;20416;-57
2021/11/03 09:40:53;;;;;;;46.38;27.30;;;;;;;9.32;75.61;100289.06;4994222;28;20042;-57
2021/11/03 09:43:54;;;;;;;46.67;28.13;;;;;;;9.36;75.66;100296.03;4982322;28;20394;-55
2021/11/03 09:46:35;;;;;;;46.42;28.45;;;;;;;9.43;75.50;100294.38;4995664;28;20312;-57
2021/11/03 09:49:24;;;;;;;46.67;27.40;;;;;;;9.53;75.87;100296.16;4995852;28;20054;-55
2021/11/03 09:51:56;;;;;;;48.47;27.42;;;;;;;9.67;75.78;100299.78;5016827;28;20499;-56
2021/11/03 09:54:29;;;;;;;50.85;28.00;;;;;;;9.78;75.84;100305.03;4992916;28;20753;-56
2021/11/03 09:57:13;;;;;;;51.33;28.98;;;;;;;9.87;76.25;100293.84;4994012;28;20038;-57
2021/11/03 09:59:47;;;;;;;50.92;26.80;;;;;;;10.01;76.25;100293.06;4989260;28;20057;-56
2021/11/03 10:02:31;;;;;;;;;;;;;;;10.01;75.82;100300.00;4991192;28;20135;-56
2021/11/03 10:05:32;;;;;;;49.97;27.17;;;;;;;10.04;76.00;100298.28;4989250;28;19959;-59
2021/11/03 10:08:18;;;;;;;47.22;27.30;;;;;;;10.08;75.61;100300.03;4989579;28;20143;-57
2021/11/03 10:10:53;;;;;;;47.75;28.40;;;;;;;10.14;75.54;100304.41;4985343;28;20605;-56
2021/11/03 10:13:18;;;;;;;43.00;27.38;;;;;;;10.10;75.22;100303.53;4985528;28;20152;-59
2021/11/03 10:15:55;;;;;;;45.13;28.52;;;;;;;10.00;75.54;100308.69;4988716;28;20046;-58
2021/11/03 10:18:22;;;;;;;44.63;28.75;;;;;;;10.11;75.17;100309.63;4997505;28;20141;-59
2021/11/03 10:21:20;;;;;;;44.42;27.70;;;;;;;10.13;74.69;100306.16;4998019;28;20042;-57
2021/11/03 10:24:23;;;;;;;42.15;28.00;;;;;;;10.22;74.68;100313.19;4994979;28;20489;-58
2021/11/03 10:27:10;;;;;;;42.20;28.08;;;;;;;10.42;74.98;100314.19;4992068;28;20053;-55
2021/11/03 10:29:57;;;;;;;47.58;28.60;;;;;;;10.54;75.00;100306.44;4988660;28;20068;-58
2021/11/03 10:32:40;;;;;;;40.72;27.17;;;;;;;10.65;74.80;100306.47;5025613;28;20204;-57
2021/11/03 10:35:21;;;;;;;41.25;27.42;;;;;;;10.69;75.01;100320.38;4994341;28;20041;-56
2021/11/03 10:37:51;;;;;;;42.80;27.15;;;;;;;10.66;74.67;100313.41;4995207;28;20049;-54
2021/11/03 10:40:42;;;;;;;41.60;27.45;;;;;;;10.55;74.11;100312.50;4993452;28;20041;-59
2021/11/03 10:43:40;;;;;;;45.92;27.33;;;;;;;10.49;73.91;100309.88;4984828;28;20041;-60
2021/11/03 10:46:05;;;;;;;43.67;27.88;;;;;;;10.42;73.99;100308.09;4989976;28;20145;-57
2021/11/03 10:48:33;;;;;;;48.60;28.60;;;;;;;10.41;74.21;100307.22;4992102;28;20042;-57
2021/11/03 10:51:13;;;;;;;46.40;30.02;;;;;;;10.43;74.64;100305.47;4991774;28;20460;-58
2021/11/03 10:53:38;;;;;;;45.47;29.77;;;;;;;10.45;74.69;100305.50;4991084;28;20042;-57
2021/11/03 10:56:11;;;;;;;44.60;29.98;;;;;;;10.51;74.53;100303.78;4999380;28;20044;-56
2021/11/03 10:58:52;;;;;;;42.22;25.80;;;;;;;10.61;75.27;100299.50;4990083;28;20477;-55
2021/11/03 11:01:23;;;;;;;44.28;29.10;;;;;;;10.62;75.20;100301.22;4983940;28;20053;-60
2021/11/03 11:03:54;;;;;;;45.55;29.50;;;;;;;10.65;74.81;100293.44;4991819;28;20057;-58
2021/11/03 11:06:29;;;;;;;48.63;30.08;;;;;;;10.74;75.16;100297.78;4995389;28;20112;-57
2021/11/03 11:09:22;;;;;;;38.83;26.60;;;;;;;10.78;74.42;100295.22;4995558;28;20053;-57
2021/11/03 11:11:53;;;;;;;37.92;25.50;;;;;;;10.91;74.50;100293.53;4998424;28;20504;-59
2021/11/03 11:14:22;;;;;;;39.00;24.30;;;;;;;11.04;74.89;100294.41;4986450;28;20069;-60
2021/11/03 11:17:03;;;;;;;34.70;24.67;;;;;;;11.03;74.03;100285.72;4988348;28;20091;-58
2021/11/03 11:19:35;;;;;;;30.13;19.80;;;;;;;11.11;74.05;100293.53;4972912;28;20446;-59
2021/11/03 11:22:11;;;;;;;27.38;18.58;;;;;;;11.13;73.51;100284.00;5009250;28;20460;-58
2021/11/03 11:24:55;;;;;;;25.20;17.35;;;;;;;11.25;73.78;100291.84;4990524;28;20055;-59